Landri Sales, Brazil
Current Conditions -  °F | °C
As of 5:00 AM on Friday 21 Nov 2014 (Local Time) from SBTE Reporting Station
Scattered Clouds Scattered Clouds  
Wind Chill: 75°   Ceiling: Unl
Heat Index: 75°   Visibility: 6mi
Dew Point: 75°   Wind: 2mph
Humidity: 100%   Direction: 220°SW
Pressure: 29.83"   Gusts: NA
Location:  7.27°S, 43.93°W
Report Text: SBTE 210800Z 22002KT 9999 SCT025 24/24 Q1010
Loading
Personal Weather Stations






























Interactive Weather Map New forecast layout! Learn more

10-Day Weather Forecast

Advertisements
Track Severe Weather on mobile